sensor_id;sensor_type;location;lat;lon;timestamp;P1;durP1;ratioP1;P2;durP2;ratioP2
60336;SDS011;46978;50.288;28.624;2023-05-14T00:00:35;20.99;;;13.52;;
60336;SDS011;46978;50.288;28.624;2023-05-14T00:01:38;24.78;;;14.83;;
60336;SDS011;46978;50.288;28.624;2023-05-14T00:02:40;25.63;;;14.79;;
60336;SDS011;46978;50.288;28.624;2023-05-14T00:03:42;26.63;;;14.27;;
60336;SDS011;46978;50.288;28.624;2023-05-14T00:04:43;22.94;;;14.91;;
60336;SDS011;46978;50.288;28.624;2023-05-14T00:05:46;26.04;;;14.86;;
60336;SDS011;46978;50.288;28.624;2023-05-14T00:06:48;25.18;;;15.24;;
60336;SDS011;46978;50.288;28.624;2023-05-14T00:09:11;25.67;;;16.58;;
60336;SDS011;46978;50.288;28.624;2023-05-14T00:10:13;29.60;;;15.85;;
60336;SDS011;46978;50.288;28.624;2023-05-14T00:11:15;28.96;;;16.10;;
60336;SDS011;46978;50.288;28.624;2023-05-14T00:12:17;31.37;;;17.54;;
60336;SDS011;46978;50.288;28.624;2023-05-14T00:13:18;30.37;;;16.77;;
60336;SDS011;46978;50.288;28.624;2023-05-14T00:14:20;26.46;;;15.80;;
60336;SDS011;46978;50.288;28.624;2023-05-14T00:15:22;27.73;;;15.65;;
60336;SDS011;46978;50.288;28.624;2023-05-14T00:16:24;28.05;;;16.10;;
60336;SDS011;46978;50.288;28.624;2023-05-14T00:17:25;25.60;;;13.89;;
60336;SDS011;46978;50.288;28.624;2023-05-14T00:18:27;24.50;;;15.26;;
60336;SDS011;46978;50.288;28.624;2023-05-14T00:19:29;27.85;;;14.94;;
60336;SDS011;46978;50.288;28.624;2023-05-14T00:20:30;22.49;;;14.19;;
60336;SDS011;46978;50.288;28.624;2023-05-14T00:21:32;26.16;;;14.80;;
60336;SDS011;46978;50.288;28.624;2023-05-14T00:22:34;22.04;;;14.06;;
60336;SDS011;46978;50.288;28.624;2023-05-14T00:23:36;26.47;;;14.47;;
60336;SDS011;46978;50.288;28.624;2023-05-14T00:24:37;21.14;;;13.80;;
60336;SDS011;46978;50.288;28.624;2023-05-14T00:25:39;23.44;;;13.39;;
60336;SDS011;46978;50.288;28.624;2023-05-14T00:26:41;25.07;;;13.72;;
60336;SDS011;46978;50.288;28.624;2023-05-14T00:27:42;23.86;;;13.50;;
60336;SDS011;46978;50.288;28.624;2023-05-14T00:28:44;23.41;;;13.03;;
60336;SDS011;46978;50.288;28.624;2023-05-14T00:29:45;23.50;;;13.18;;
60336;SDS011;46978;50.288;28.624;2023-05-14T00:30:47;25.01;;;14.49;;
60336;SDS011;46978;50.288;28.624;2023-05-14T00:31:49;24.02;;;14.14;;
60336;SDS011;46978;50.288;28.624;2023-05-14T00:32:50;24.11;;;14.74;;
60336;SDS011;46978;50.288;28.624;2023-05-14T00:33:52;25.62;;;14.82;;
60336;SDS011;46978;50.288;28.624;2023-05-14T00:34:53;29.30;;;15.16;;
60336;SDS011;46978;50.288;28.624;2023-05-14T00:35:55;28.25;;;15.95;;
60336;SDS011;46978;50.288;28.624;2023-05-14T00:36:57;27.34;;;15.23;;
60336;SDS011;46978;50.288;28.624;2023-05-14T00:37:58;27.07;;;15.31;;
60336;SDS011;46978;50.288;28.624;2023-05-14T00:39:00;26.06;;;15.27;;
60336;SDS011;46978;50.288;28.624;2023-05-14T00:40:02;26.61;;;15.22;;
60336;SDS011;46978;50.288;28.624;2023-05-14T00:41:04;27.23;;;15.27;;
60336;SDS011;46978;50.288;28.624;2023-05-14T00:42:06;22.60;;;14.13;;
60336;SDS011;46978;50.288;28.624;2023-05-14T00:43:07;28.42;;;15.95;;
60336;SDS011;46978;50.288;28.624;2023-05-14T00:44:09;27.69;;;16.04;;
60336;SDS011;46978;50.288;28.624;2023-05-14T00:45:10;29.14;;;16.04;;
60336;SDS011;46978;50.288;28.624;2023-05-14T00:46:12;27.56;;;16.63;;
60336;SDS011;46978;50.288;28.624;2023-05-14T00:47:15;36.41;;;18.68;;
60336;SDS011;46978;50.288;28.624;2023-05-14T00:48:17;30.56;;;17.93;;
60336;SDS011;46978;50.288;28.624;2023-05-14T00:49:20;28.99;;;17.54;;
60336;SDS011;46978;50.288;28.624;2023-05-14T00:50:22;28.91;;;16.43;;
60336;SDS011;46978;50.288;28.624;2023-05-14T00:51:24;30.88;;;15.53;;
60336;SDS011;46978;50.288;28.624;2023-05-14T00:52:26;27.09;;;15.80;;
60336;SDS011;46978;50.288;28.624;2023-05-14T00:53:28;26.10;;;15.79;;
60336;SDS011;46978;50.288;28.624;2023-05-14T00:54:29;26.18;;;15.30;;
60336;SDS011;46978;50.288;28.624;2023-05-14T00:55:32;25.02;;;14.85;;
60336;SDS011;46978;50.288;28.624;2023-05-14T00:56:34;26.31;;;14.48;;
60336;SDS011;46978;50.288;28.624;2023-05-14T00:57:36;24.26;;;13.66;;
60336;SDS011;46978;50.288;28.624;2023-05-14T00:58:37;24.31;;;14.24;;
60336;SDS011;46978;50.288;28.624;2023-05-14T00:59:39;21.55;;;14.23;;
60336;SDS011;46978;50.288;28.624;2023-05-14T01:00:41;27.12;;;15.65;;
60336;SDS011;46978;50.288;28.624;2023-05-14T01:01:42;24.42;;;15.10;;
60336;SDS011;46978;50.288;28.624;2023-05-14T01:02:44;25.52;;;15.13;;
60336;SDS011;46978;50.288;28.624;2023-05-14T01:03:46;30.64;;;15.84;;
60336;SDS011;46978;50.288;28.624;2023-05-14T01:04:47;23.87;;;15.17;;
60336;SDS011;46978;50.288;28.624;2023-05-14T01:07:03;29.66;;;15.70;;
60336;SDS011;46978;50.288;28.624;2023-05-14T01:08:08;29.33;;;16.19;;
60336;SDS011;46978;50.288;28.624;2023-05-14T01:10:41;33.80;;;18.24;;
60336;SDS011;46978;50.288;28.624;2023-05-14T01:12:04;31.07;;;18.46;;
60336;SDS011;46978;50.288;28.624;2023-05-14T01:13:26;34.00;;;17.96;;
60336;SDS011;46978;50.288;28.624;2023-05-14T01:14:35;27.72;;;16.30;;
60336;SDS011;46978;50.288;28.624;2023-05-14T01:15:47;31.47;;;18.19;;
60336;SDS011;46978;50.288;28.624;2023-05-14T01:16:51;30.46;;;17.76;;
60336;SDS011;46978;50.288;28.624;2023-05-14T01:18:03;38.09;;;18.06;;
60336;SDS011;46978;50.288;28.624;2023-05-14T01:19:06;32.60;;;17.76;;
60336;SDS011;46978;50.288;28.624;2023-05-14T01:20:11;32.27;;;18.82;;
60336;SDS011;46978;50.288;28.624;2023-05-14T01:22:35;28.88;;;15.26;;
60336;SDS011;46978;50.288;28.624;2023-05-14T01:23:37;26.82;;;14.56;;
60336;SDS011;46978;50.288;28.624;2023-05-14T01:24:38;25.84;;;14.14;;
60336;SDS011;46978;50.288;28.624;2023-05-14T01:25:40;23.10;;;12.99;;
60336;SDS011;46978;50.288;28.624;2023-05-14T01:26:42;20.53;;;11.98;;
60336;SDS011;46978;50.288;28.624;2023-05-14T01:27:51;23.43;;;11.97;;
60336;SDS011;46978;50.288;28.624;2023-05-14T01:28:59;19.02;;;10.74;;
60336;SDS011;46978;50.288;28.624;2023-05-14T01:30:15;18.74;;;10.24;;
60336;SDS011;46978;50.288;28.624;2023-05-14T01:31:33;17.79;;;10.82;;
60336;SDS011;46978;50.288;28.624;2023-05-14T01:32:38;18.77;;;11.12;;
60336;SDS011;46978;50.288;28.624;2023-05-14T01:33:41;19.34;;;11.44;;
60336;SDS011;46978;50.288;28.624;2023-05-14T01:34:44;19.03;;;11.53;;
60336;SDS011;46978;50.288;28.624;2023-05-14T01:35:47;18.27;;;11.64;;
60336;SDS011;46978;50.288;28.624;2023-05-14T01:36:50;20.09;;;12.11;;
60336;SDS011;46978;50.288;28.624;2023-05-14T01:37:57;18.80;;;11.21;;
60336;SDS011;46978;50.288;28.624;2023-05-14T01:39:04;19.96;;;11.73;;
60336;SDS011;46978;50.288;28.624;2023-05-14T01:40:07;18.72;;;11.66;;
60336;SDS011;46978;50.288;28.624;2023-05-14T01:41:11;19.44;;;11.25;;
60336;SDS011;46978;50.288;28.624;2023-05-14T01:42:14;18.35;;;11.83;;
60336;SDS011;46978;50.288;28.624;2023-05-14T01:43:16;18.27;;;11.31;;
60336;SDS011;46978;50.288;28.624;2023-05-14T01:44:19;19.04;;;12.13;;
60336;SDS011;46978;50.288;28.624;2023-05-14T01:45:22;20.33;;;12.49;;
60336;SDS011;46978;50.288;28.624;2023-05-14T01:46:24;20.89;;;12.99;;
60336;SDS011;46978;50.288;28.624;2023-05-14T01:47:26;24.54;;;14.26;;
60336;SDS011;46978;50.288;28.624;2023-05-14T01:48:27;23.44;;;14.11;;
60336;SDS011;46978;50.288;28.624;2023-05-14T01:49:29;19.15;;;13.56;;
60336;SDS011;46978;50.288;28.624;2023-05-14T01:50:30;29.04;;;15.50;;
60336;SDS011;46978;50.288;28.624;2023-05-14T01:51:32;34.38;;;19.04;;
60336;SDS011;46978;50.288;28.624;2023-05-14T01:52:34;35.85;;;19.55;;
60336;SDS011;46978;50.288;28.624;2023-05-14T01:53:35;35.46;;;19.19;;
60336;SDS011;46978;50.288;28.624;2023-05-14T01:54:37;31.28;;;17.19;;
60336;SDS011;46978;50.288;28.624;2023-05-14T01:55:38;27.56;;;16.71;;
60336;SDS011;46978;50.288;28.624;2023-05-14T01:56:40;29.76;;;16.76;;
60336;SDS011;46978;50.288;28.624;2023-05-14T01:57:41;31.77;;;17.26;;
60336;SDS011;46978;50.288;28.624;2023-05-14T01:58:43;32.73;;;17.32;;
60336;SDS011;46978;50.288;28.624;2023-05-14T01:59:44;32.24;;;17.88;;
60336;SDS011;46978;50.288;28.624;2023-05-14T02:00:46;34.18;;;18.31;;
60336;SDS011;46978;50.288;28.624;2023-05-14T02:01:48;31.31;;;16.86;;
60336;SDS011;46978;50.288;28.624;2023-05-14T02:02:49;31.25;;;16.33;;
60336;SDS011;46978;50.288;28.624;2023-05-14T02:03:51;33.40;;;17.12;;
60336;SDS011;46978;50.288;28.624;2023-05-14T02:04:53;31.99;;;17.48;;
60336;SDS011;46978;50.288;28.624;2023-05-14T02:05:54;32.38;;;16.28;;
60336;SDS011;46978;50.288;28.624;2023-05-14T02:06:56;26.25;;;15.50;;
60336;SDS011;46978;50.288;28.624;2023-05-14T02:07:57;29.79;;;17.39;;
60336;SDS011;46978;50.288;28.624;2023-05-14T02:08:59;27.38;;;16.33;;
60336;SDS011;46978;50.288;28.624;2023-05-14T02:10:00;29.81;;;16.91;;
60336;SDS011;46978;50.288;28.624;2023-05-14T02:11:02;33.54;;;17.50;;
60336;SDS011;46978;50.288;28.624;2023-05-14T02:12:04;34.50;;;18.81;;
60336;SDS011;46978;50.288;28.624;2023-05-14T02:13:06;35.91;;;17.81;;
60336;SDS011;46978;50.288;28.624;2023-05-14T02:14:08;32.91;;;18.66;;
60336;SDS011;46978;50.288;28.624;2023-05-14T02:15:09;29.45;;;18.31;;
60336;SDS011;46978;50.288;28.624;2023-05-14T02:16:12;31.59;;;18.79;;
60336;SDS011;46978;50.288;28.624;2023-05-14T02:17:13;31.86;;;18.16;;
60336;SDS011;46978;50.288;28.624;2023-05-14T02:18:15;28.69;;;15.41;;
60336;SDS011;46978;50.288;28.624;2023-05-14T02:19:16;28.35;;;15.36;;
60336;SDS011;46978;50.288;28.624;2023-05-14T02:20:18;29.57;;;15.34;;
60336;SDS011;46978;50.288;28.624;2023-05-14T02:21:20;28.06;;;16.20;;
60336;SDS011;46978;50.288;28.624;2023-05-14T02:22:21;26.21;;;15.74;;
60336;SDS011;46978;50.288;28.624;2023-05-14T02:23:23;26.72;;;15.04;;
60336;SDS011;46978;50.288;28.624;2023-05-14T02:24:24;26.47;;;15.21;;
60336;SDS011;46978;50.288;28.624;2023-05-14T02:25:26;25.59;;;13.89;;
60336;SDS011;46978;50.288;28.624;2023-05-14T02:26:28;20.63;;;12.64;;
60336;SDS011;46978;50.288;28.624;2023-05-14T02:27:29;19.15;;;12.03;;
60336;SDS011;46978;50.288;28.624;2023-05-14T02:28:31;18.79;;;11.37;;
60336;SDS011;46978;50.288;28.624;2023-05-14T02:29:32;16.96;;;10.89;;
60336;SDS011;46978;50.288;28.624;2023-05-14T02:30:34;18.04;;;10.46;;
60336;SDS011;46978;50.288;28.624;2023-05-14T02:31:36;17.71;;;10.34;;
60336;SDS011;46978;50.288;28.624;2023-05-14T02:32:37;19.93;;;10.67;;
60336;SDS011;46978;50.288;28.624;2023-05-14T02:33:39;15.68;;;9.94;;
60336;SDS011;46978;50.288;28.624;2023-05-14T02:34:41;16.59;;;9.95;;
60336;SDS011;46978;50.288;28.624;2023-05-14T02:35:42;14.86;;;9.78;;
60336;SDS011;46978;50.288;28.624;2023-05-14T02:36:44;14.57;;;9.34;;
60336;SDS011;46978;50.288;28.624;2023-05-14T02:37:45;15.81;;;9.33;;
60336;SDS011;46978;50.288;28.624;2023-05-14T02:38:47;16.64;;;8.79;;
60336;SDS011;46978;50.288;28.624;2023-05-14T02:39:48;13.35;;;9.09;;
60336;SDS011;46978;50.288;28.624;2023-05-14T02:40:50;16.97;;;9.11;;
60336;SDS011;46978;50.288;28.624;2023-05-14T02:41:52;14.61;;;9.37;;
60336;SDS011;46978;50.288;28.624;2023-05-14T02:42:53;15.19;;;9.49;;
60336;SDS011;46978;50.288;28.624;2023-05-14T02:43:55;14.16;;;9.39;;
60336;SDS011;46978;50.288;28.624;2023-05-14T02:44:56;14.79;;;9.89;;
60336;SDS011;46978;50.288;28.624;2023-05-14T02:45:58;16.17;;;9.94;;
60336;SDS011;46978;50.288;28.624;2023-05-14T02:47:00;15.60;;;9.37;;
60336;SDS011;46978;50.288;28.624;2023-05-14T02:48:02;16.69;;;9.95;;
60336;SDS011;46978;50.288;28.624;2023-05-14T02:49:03;14.45;;;9.12;;
60336;SDS011;46978;50.288;28.624;2023-05-14T02:50:06;14.02;;;8.25;;
60336;SDS011;46978;50.288;28.624;2023-05-14T02:51:08;15.03;;;9.25;;
60336;SDS011;46978;50.288;28.624;2023-05-14T02:52:10;15.53;;;9.41;;
60336;SDS011;46978;50.288;28.624;2023-05-14T02:53:11;17.85;;;9.91;;
60336;SDS011;46978;50.288;28.624;2023-05-14T02:54:13;13.65;;;8.46;;
60336;SDS011;46978;50.288;28.624;2023-05-14T02:55:14;13.76;;;9.00;;
60336;SDS011;46978;50.288;28.624;2023-05-14T02:56:16;15.27;;;8.94;;
60336;SDS011;46978;50.288;28.624;2023-05-14T02:57:18;14.01;;;8.42;;
60336;SDS011;46978;50.288;28.624;2023-05-14T02:58:19;17.04;;;9.79;;
60336;SDS011;46978;50.288;28.624;2023-05-14T02:59:23;13.65;;;9.06;;
60336;SDS011;46978;50.288;28.624;2023-05-14T03:00:24;16.15;;;9.84;;
60336;SDS011;46978;50.288;28.624;2023-05-14T03:01:26;14.79;;;10.29;;
60336;SDS011;46978;50.288;28.624;2023-05-14T03:02:28;16.22;;;11.09;;
60336;SDS011;46978;50.288;28.624;2023-05-14T03:03:29;17.99;;;11.39;;
60336;SDS011;46978;50.288;28.624;2023-05-14T03:04:31;18.13;;;10.55;;
60336;SDS011;46978;50.288;28.624;2023-05-14T03:05:33;17.58;;;10.91;;
60336;SDS011;46978;50.288;28.624;2023-05-14T03:06:34;16.55;;;10.19;;
60336;SDS011;46978;50.288;28.624;2023-05-14T03:07:36;16.27;;;10.22;;
60336;SDS011;46978;50.288;28.624;2023-05-14T03:08:37;15.59;;;10.06;;
60336;SDS011;46978;50.288;28.624;2023-05-14T03:09:39;17.75;;;11.51;;
60336;SDS011;46978;50.288;28.624;2023-05-14T03:10:41;20.09;;;13.10;;
60336;SDS011;46978;50.288;28.624;2023-05-14T03:11:42;26.35;;;17.69;;
60336;SDS011;46978;50.288;28.624;2023-05-14T03:12:44;32.11;;;20.86;;
60336;SDS011;46978;50.288;28.624;2023-05-14T03:13:45;35.46;;;21.49;;
60336;SDS011;46978;50.288;28.624;2023-05-14T03:14:47;29.09;;;19.30;;
60336;SDS011;46978;50.288;28.624;2023-05-14T03:15:49;24.69;;;15.30;;
60336;SDS011;46978;50.288;28.624;2023-05-14T03:16:50;24.49;;;16.64;;
60336;SDS011;46978;50.288;28.624;2023-05-14T03:17:52;23.83;;;15.36;;
60336;SDS011;46978;50.288;28.624;2023-05-14T03:18:53;24.79;;;16.70;;
60336;SDS011;46978;50.288;28.624;2023-05-14T03:19:55;27.58;;;17.51;;
60336;SDS011;46978;50.288;28.624;2023-05-14T03:20:56;28.17;;;17.61;;
60336;SDS011;46978;50.288;28.624;2023-05-14T03:21:58;25.56;;;16.99;;
60336;SDS011;46978;50.288;28.624;2023-05-14T03:23:00;23.76;;;15.79;;
60336;SDS011;46978;50.288;28.624;2023-05-14T03:24:02;24.60;;;16.29;;
60336;SDS011;46978;50.288;28.624;2023-05-14T03:25:04;26.44;;;14.68;;
60336;SDS011;46978;50.288;28.624;2023-05-14T03:26:07;20.12;;;13.99;;
60336;SDS011;46978;50.288;28.624;2023-05-14T03:27:08;22.79;;;14.81;;
60336;SDS011;46978;50.288;28.624;2023-05-14T03:28:10;27.04;;;17.19;;
60336;SDS011;46978;50.288;28.624;2023-05-14T03:29:11;36.12;;;24.24;;
60336;SDS011;46978;50.288;28.624;2023-05-14T03:30:15;35.83;;;23.02;;
60336;SDS011;46978;50.288;28.624;2023-05-14T03:31:16;37.76;;;22.93;;
60336;SDS011;46978;50.288;28.624;2023-05-14T03:32:18;32.76;;;20.79;;
60336;SDS011;46978;50.288;28.624;2023-05-14T03:33:20;31.49;;;19.34;;
60336;SDS011;46978;50.288;28.624;2023-05-14T03:34:22;25.93;;;16.54;;
60336;SDS011;46978;50.288;28.624;2023-05-14T03:35:23;24.06;;;14.93;;
60336;SDS011;46978;50.288;28.624;2023-05-14T03:36:25;23.79;;;14.63;;
60336;SDS011;46978;50.288;28.624;2023-05-14T03:37:27;23.01;;;14.34;;
60336;SDS011;46978;50.288;28.624;2023-05-14T03:38:28;20.27;;;13.64;;
60336;SDS011;46978;50.288;28.624;2023-05-14T03:39:30;21.36;;;12.30;;
60336;SDS011;46978;50.288;28.624;2023-05-14T03:40:31;19.86;;;12.81;;
60336;SDS011;46978;50.288;28.624;2023-05-14T03:41:33;18.14;;;12.13;;
60336;SDS011;46978;50.288;28.624;2023-05-14T03:42:35;18.78;;;12.77;;
60336;SDS011;46978;50.288;28.624;2023-05-14T03:43:37;20.49;;;12.95;;
60336;SDS011;46978;50.288;28.624;2023-05-14T03:44:38;19.75;;;12.93;;
60336;SDS011;46978;50.288;28.624;2023-05-14T03:45:40;18.27;;;11.69;;
60336;SDS011;46978;50.288;28.624;2023-05-14T03:46:42;20.33;;;11.93;;
60336;SDS011;46978;50.288;28.624;2023-05-14T03:47:43;16.08;;;10.43;;
60336;SDS011;46978;50.288;28.624;2023-05-14T03:48:45;16.82;;;10.14;;
60336;SDS011;46978;50.288;28.624;2023-05-14T03:49:46;16.08;;;9.72;;
60336;SDS011;46978;50.288;28.624;2023-05-14T03:50:48;14.61;;;9.17;;
60336;SDS011;46978;50.288;28.624;2023-05-14T03:51:50;13.43;;;8.56;;
60336;SDS011;46978;50.288;28.624;2023-05-14T03:52:51;12.28;;;7.91;;
60336;SDS011;46978;50.288;28.624;2023-05-14T03:53:53;14.44;;;8.03;;
60336;SDS011;46978;50.288;28.624;2023-05-14T03:54:55;12.87;;;7.82;;
60336;SDS011;46978;50.288;28.624;2023-05-14T03:55:56;12.73;;;8.04;;
60336;SDS011;46978;50.288;28.624;2023-05-14T03:56:58;13.04;;;7.83;;
60336;SDS011;46978;50.288;28.624;2023-05-14T03:57:59;12.34;;;7.68;;
60336;SDS011;46978;50.288;28.624;2023-05-14T03:59:01;14.12;;;8.34;;
60336;SDS011;46978;50.288;28.624;2023-05-14T04:00:03;16.46;;;8.19;;
60336;SDS011;46978;50.288;28.624;2023-05-14T04:01:05;14.48;;;8.01;;
60336;SDS011;46978;50.288;28.624;2023-05-14T04:02:07;15.69;;;8.31;;
60336;SDS011;46978;50.288;28.624;2023-05-14T04:03:08;13.55;;;8.31;;
60336;SDS011;46978;50.288;28.624;2023-05-14T04:04:10;12.44;;;7.89;;
60336;SDS011;46978;50.288;28.624;2023-05-14T04:05:11;15.44;;;8.30;;
60336;SDS011;46978;50.288;28.624;2023-05-14T04:06:13;14.37;;;9.10;;
60336;SDS011;46978;50.288;28.624;2023-05-14T04:07:15;14.46;;;8.99;;
60336;SDS011;46978;50.288;28.624;2023-05-14T04:08:16;15.12;;;8.44;;
60336;SDS011;46978;50.288;28.624;2023-05-14T04:09:18;16.30;;;9.59;;
60336;SDS011;46978;50.288;28.624;2023-05-14T04:10:19;15.89;;;8.74;;
60336;SDS011;46978;50.288;28.624;2023-05-14T04:11:21;13.23;;;8.34;;
60336;SDS011;46978;50.288;28.624;2023-05-14T04:12:23;15.36;;;8.49;;
60336;SDS011;46978;50.288;28.624;2023-05-14T04:13:24;14.34;;;8.35;;
60336;SDS011;46978;50.288;28.624;2023-05-14T04:14:26;14.64;;;8.39;;
60336;SDS011;46978;50.288;28.624;2023-05-14T04:15:27;15.89;;;8.69;;
60336;SDS011;46978;50.288;28.624;2023-05-14T04:16:29;12.65;;;8.13;;
60336;SDS011;46978;50.288;28.624;2023-05-14T04:17:31;13.32;;;8.49;;
60336;SDS011;46978;50.288;28.624;2023-05-14T04:18:32;13.52;;;7.69;;
60336;SDS011;46978;50.288;28.624;2023-05-14T04:19:34;15.99;;;8.62;;
60336;SDS011;46978;50.288;28.624;2023-05-14T04:20:36;14.15;;;8.00;;
60336;SDS011;46978;50.288;28.624;2023-05-14T04:21:37;14.24;;;7.77;;
60336;SDS011;46978;50.288;28.624;2023-05-14T04:22:39;12.90;;;7.86;;
60336;SDS011;46978;50.288;28.624;2023-05-14T04:23:40;11.19;;;7.89;;
60336;SDS011;46978;50.288;28.624;2023-05-14T04:24:42;14.52;;;7.86;;
60336;SDS011;46978;50.288;28.624;2023-05-14T04:25:43;12.75;;;7.64;;
60336;SDS011;46978;50.288;28.624;2023-05-14T04:26:45;12.67;;;7.48;;
60336;SDS011;46978;50.288;28.624;2023-05-14T04:27:47;12.53;;;7.28;;
60336;SDS011;46978;50.288;28.624;2023-05-14T04:28:48;12.79;;;7.49;;
60336;SDS011;46978;50.288;28.624;2023-05-14T04:29:50;11.06;;;7.27;;
60336;SDS011;46978;50.288;28.624;2023-05-14T04:30:52;15.10;;;7.77;;
60336;SDS011;46978;50.288;28.624;2023-05-14T04:31:53;12.83;;;7.14;;
60336;SDS011;46978;50.288;28.624;2023-05-14T04:32:55;9.48;;;7.04;;
60336;SDS011;46978;50.288;28.624;2023-05-14T04:33:56;13.82;;;7.21;;
60336;SDS011;46978;50.288;28.624;2023-05-14T04:34:58;10.79;;;6.84;;
60336;SDS011;46978;50.288;28.624;2023-05-14T04:35:59;11.32;;;7.20;;
60336;SDS011;46978;50.288;28.624;2023-05-14T04:37:01;11.67;;;6.70;;
60336;SDS011;46978;50.288;28.624;2023-05-14T04:38:02;11.34;;;6.79;;
60336;SDS011;46978;50.288;28.624;2023-05-14T04:39:04;9.93;;;6.78;;
60336;SDS011;46978;50.288;28.624;2023-05-14T04:40:07;10.16;;;6.89;;
60336;SDS011;46978;50.288;28.624;2023-05-14T04:41:09;10.33;;;6.62;;
60336;SDS011;46978;50.288;28.624;2023-05-14T04:42:11;11.43;;;7.39;;
60336;SDS011;46978;50.288;28.624;2023-05-14T04:43:12;13.51;;;7.99;;
60336;SDS011;46978;50.288;28.624;2023-05-14T04:44:14;10.73;;;7.24;;
60336;SDS011;46978;50.288;28.624;2023-05-14T04:45:16;12.44;;;7.36;;
60336;SDS011;46978;50.288;28.624;2023-05-14T04:46:18;13.80;;;7.97;;
60336;SDS011;46978;50.288;28.624;2023-05-14T04:47:19;15.25;;;8.61;;
60336;SDS011;46978;50.288;28.624;2023-05-14T04:48:21;12.04;;;7.94;;
60336;SDS011;46978;50.288;28.624;2023-05-14T04:49:22;13.39;;;8.66;;
60336;SDS011;46978;50.288;28.624;2023-05-14T04:50:24;14.41;;;9.66;;
60336;SDS011;46978;50.288;28.624;2023-05-14T04:51:25;14.87;;;8.96;;
60336;SDS011;46978;50.288;28.624;2023-05-14T04:52:27;16.80;;;9.91;;
60336;SDS011;46978;50.288;28.624;2023-05-14T04:53:29;15.09;;;9.26;;
60336;SDS011;46978;50.288;28.624;2023-05-14T04:54:30;15.98;;;9.24;;
60336;SDS011;46978;50.288;28.624;2023-05-14T04:55:32;14.83;;;8.69;;
60336;SDS011;46978;50.288;28.624;2023-05-14T04:56:34;13.24;;;8.70;;
60336;SDS011;46978;50.288;28.624;2023-05-14T04:57:35;11.61;;;8.18;;
60336;SDS011;46978;50.288;28.624;2023-05-14T04:58:37;14.40;;;7.60;;
60336;SDS011;46978;50.288;28.624;2023-05-14T04:59:39;11.35;;;8.01;;
60336;SDS011;46978;50.288;28.624;2023-05-14T05:00:40;12.36;;;7.72;;
60336;SDS011;46978;50.288;28.624;2023-05-14T05:01:42;12.45;;;8.01;;
60336;SDS011;46978;50.288;28.624;2023-05-14T05:02:44;12.36;;;8.01;;
60336;SDS011;46978;50.288;28.624;2023-05-14T05:03:45;12.73;;;7.79;;
60336;SDS011;46978;50.288;28.624;2023-05-14T05:04:47;11.75;;;6.88;;
60336;SDS011;46978;50.288;28.624;2023-05-14T05:05:48;10.96;;;7.36;;
60336;SDS011;46978;50.288;28.624;2023-05-14T05:06:50;10.56;;;7.15;;
60336;SDS011;46978;50.288;28.624;2023-05-14T05:07:52;9.92;;;6.80;;
60336;SDS011;46978;50.288;28.624;2023-05-14T05:08:54;10.11;;;6.39;;
60336;SDS011;46978;50.288;28.624;2023-05-14T05:09:55;13.58;;;7.01;;
60336;SDS011;46978;50.288;28.624;2023-05-14T05:10:57;11.06;;;6.76;;
60336;SDS011;46978;50.288;28.624;2023-05-14T05:11:59;10.49;;;7.04;;
60336;SDS011;46978;50.288;28.624;2023-05-14T05:13:01;9.86;;;6.51;;
60336;SDS011;46978;50.288;28.624;2023-05-14T05:14:02;11.27;;;6.75;;
60336;SDS011;46978;50.288;28.624;2023-05-14T05:15:04;11.54;;;7.12;;
60336;SDS011;46978;50.288;28.624;2023-05-14T05:16:06;11.43;;;7.53;;
60336;SDS011;46978;50.288;28.624;2023-05-14T05:17:08;12.46;;;7.78;;
60336;SDS011;46978;50.288;28.624;2023-05-14T05:18:09;9.63;;;6.92;;
60336;SDS011;46978;50.288;28.624;2023-05-14T05:19:11;13.04;;;7.44;;
60336;SDS011;46978;50.288;28.624;2023-05-14T05:20:15;13.34;;;7.56;;
60336;SDS011;46978;50.288;28.624;2023-05-14T05:21:16;11.29;;;7.36;;
60336;SDS011;46978;50.288;28.624;2023-05-14T05:22:18;11.96;;;7.38;;
60336;SDS011;46978;50.288;28.624;2023-05-14T05:23:20;13.09;;;8.24;;
60336;SDS011;46978;50.288;28.624;2023-05-14T05:24:21;11.79;;;8.21;;
60336;SDS011;46978;50.288;28.624;2023-05-14T05:25:23;11.33;;;7.89;;
60336;SDS011;46978;50.288;28.624;2023-05-14T05:26:25;14.10;;;7.11;;
60336;SDS011;46978;50.288;28.624;2023-05-14T05:27:27;11.36;;;7.02;;
60336;SDS011;46978;50.288;28.624;2023-05-14T05:28:28;10.79;;;6.29;;
60336;SDS011;46978;50.288;28.624;2023-05-14T05:29:30;10.14;;;6.39;;
60336;SDS011;46978;50.288;28.624;2023-05-14T05:30:32;11.03;;;6.61;;
60336;SDS011;46978;50.288;28.624;2023-05-14T05:31:33;9.89;;;6.07;;
60336;SDS011;46978;50.288;28.624;2023-05-14T05:32:35;7.71;;;5.74;;
60336;SDS011;46978;50.288;28.624;2023-05-14T05:33:37;12.07;;;5.57;;
60336;SDS011;46978;50.288;28.624;2023-05-14T05:34:39;12.40;;;6.29;;
60336;SDS011;46978;50.288;28.624;2023-05-14T05:35:41;8.61;;;6.10;;
60336;SDS011;46978;50.288;28.624;2023-05-14T05:36:43;8.68;;;6.34;;
60336;SDS011;46978;50.288;28.624;2023-05-14T05:37:44;9.49;;;5.99;;
60336;SDS011;46978;50.288;28.624;2023-05-14T05:38:46;8.74;;;5.76;;
60336;SDS011;46978;50.288;28.624;2023-05-14T05:39:47;9.75;;;6.06;;
60336;SDS011;46978;50.288;28.624;2023-05-14T05:40:49;11.32;;;6.15;;
60336;SDS011;46978;50.288;28.624;2023-05-14T05:41:51;9.49;;;5.81;;
60336;SDS011;46978;50.288;28.624;2023-05-14T05:42:53;11.12;;;6.01;;
60336;SDS011;46978;50.288;28.624;2023-05-14T05:43:55;9.91;;;5.95;;
60336;SDS011;46978;50.288;28.624;2023-05-14T05:44:56;13.93;;;6.15;;
60336;SDS011;46978;50.288;28.624;2023-05-14T05:45:59;11.59;;;5.64;;
60336;SDS011;46978;50.288;28.624;2023-05-14T05:47:01;11.64;;;5.69;;
60336;SDS011;46978;50.288;28.624;2023-05-14T05:48:02;9.64;;;5.72;;
60336;SDS011;46978;50.288;28.624;2023-05-14T05:49:04;12.15;;;5.91;;
60336;SDS011;46978;50.288;28.624;2023-05-14T05:50:07;14.47;;;6.43;;
60336;SDS011;46978;50.288;28.624;2023-05-14T05:51:09;10.11;;;6.39;;
60336;SDS011;46978;50.288;28.624;2023-05-14T05:52:11;9.43;;;5.83;;
60336;SDS011;46978;50.288;28.624;2023-05-14T05:53:13;9.03;;;5.48;;
60336;SDS011;46978;50.288;28.624;2023-05-14T05:54:15;8.67;;;6.48;;
60336;SDS011;46978;50.288;28.624;2023-05-14T05:55:16;11.54;;;6.54;;
60336;SDS011;46978;50.288;28.624;2023-05-14T05:56:18;11.96;;;6.91;;
60336;SDS011;46978;50.288;28.624;2023-05-14T05:57:20;9.36;;;5.76;;
60336;SDS011;46978;50.288;28.624;2023-05-14T05:58:21;11.26;;;5.92;;
60336;SDS011;46978;50.288;28.624;2023-05-14T05:59:23;10.11;;;5.75;;
60336;SDS011;46978;50.288;28.624;2023-05-14T06:00:25;7.99;;;5.41;;
60336;SDS011;46978;50.288;28.624;2023-05-14T06:01:27;10.21;;;5.89;;
60336;SDS011;46978;50.288;28.624;2023-05-14T06:02:28;9.54;;;5.17;;
60336;SDS011;46978;50.288;28.624;2023-05-14T06:03:30;14.66;;;5.72;;
60336;SDS011;46978;50.288;28.624;2023-05-14T06:04:31;7.90;;;5.14;;
60336;SDS011;46978;50.288;28.624;2023-05-14T06:05:33;8.32;;;5.27;;
60336;SDS011;46978;50.288;28.624;2023-05-14T06:06:35;9.34;;;5.32;;